sensor_id;sensor_type;location;lat;lon;timestamp;temperature;humidity
4324;DHT22;2175;51.018;6.994;2023-07-29T00:01:41;19.50;99.90
4324;DHT22;2175;51.018;6.994;2023-07-29T00:04:07;19.60;99.90
4324;DHT22;2175;51.018;6.994;2023-07-29T00:06:35;19.60;99.90
4324;DHT22;2175;51.018;6.994;2023-07-29T00:09:01;19.60;99.90
4324;DHT22;2175;51.018;6.994;2023-07-29T00:11:26;19.60;99.90
4324;DHT22;2175;51.018;6.994;2023-07-29T00:13:52;19.70;99.90
4324;DHT22;2175;51.018;6.994;2023-07-29T00:16:18;19.70;99.90
4324;DHT22;2175;51.018;6.994;2023-07-29T00:18:47;19.70;99.90
4324;DHT22;2175;51.018;6.994;2023-07-29T00:21:13;19.70;99.90
4324;DHT22;2175;51.018;6.994;2023-07-29T00:23:38;19.70;99.90
4324;DHT22;2175;51.018;6.994;2023-07-29T00:26:04;19.60;99.90
4324;DHT22;2175;51.018;6.994;2023-07-29T00:28:30;19.60;99.90
4324;DHT22;2175;51.018;6.994;2023-07-29T00:30:55;19.60;99.90
4324;DHT22;2175;51.018;6.994;2023-07-29T00:33:21;19.60;99.90
4324;DHT22;2175;51.018;6.994;2023-07-29T00:35:46;19.60;99.90
4324;DHT22;2175;51.018;6.994;2023-07-29T00:38:12;19.60;99.90
4324;DHT22;2175;51.018;6.994;2023-07-29T00:40:38;19.50;99.90
4324;DHT22;2175;51.018;6.994;2023-07-29T00:43:03;19.50;99.90
4324;DHT22;2175;51.018;6.994;2023-07-29T00:45:29;19.50;99.90
4324;DHT22;2175;51.018;6.994;2023-07-29T00:47:55;19.50;99.90
4324;DHT22;2175;51.018;6.994;2023-07-29T00:50:21;19.50;99.90
4324;DHT22;2175;51.018;6.994;2023-07-29T00:52:49;19.50;99.90
4324;DHT22;2175;51.018;6.994;2023-07-29T00:55:14;19.50;99.90
4324;DHT22;2175;51.018;6.994;2023-07-29T00:57:41;19.50;99.90
4324;DHT22;2175;51.018;6.994;2023-07-29T01:00:08;19.50;99.90
4324;DHT22;2175;51.018;6.994;2023-07-29T01:02:34;19.50;99.90
4324;DHT22;2175;51.018;6.994;2023-07-29T01:05:01;19.50;99.90
4324;DHT22;2175;51.018;6.994;2023-07-29T01:10:33;19.40;99.90
4324;DHT22;2175;51.018;6.994;2023-07-29T01:13:27;19.50;99.90
4324;DHT22;2175;51.018;6.994;2023-07-29T01:15:58;19.50;99.90
4324;DHT22;2175;51.018;6.994;2023-07-29T01:18:32;19.50;99.90
4324;DHT22;2175;51.018;6.994;2023-07-29T01:21:03;19.50;99.90
4324;DHT22;2175;51.018;6.994;2023-07-29T01:23:33;19.40;99.90
4324;DHT22;2175;51.018;6.994;2023-07-29T01:25:59;19.50;99.90
4324;DHT22;2175;51.018;6.994;2023-07-29T01:28:25;19.50;99.90
4324;DHT22;2175;51.018;6.994;2023-07-29T01:33:40;19.40;99.90
4324;DHT22;2175;51.018;6.994;2023-07-29T01:36:18;19.30;99.90
4324;DHT22;2175;51.018;6.994;2023-07-29T01:38:45;19.30;99.90
4324;DHT22;2175;51.018;6.994;2023-07-29T01:41:13;19.40;99.90
4324;DHT22;2175;51.018;6.994;2023-07-29T01:43:39;19.40;99.90
4324;DHT22;2175;51.018;6.994;2023-07-29T01:46:13;19.40;99.90
4324;DHT22;2175;51.018;6.994;2023-07-29T01:48:39;19.40;99.90
4324;DHT22;2175;51.018;6.994;2023-07-29T01:51:05;19.40;99.90
4324;DHT22;2175;51.018;6.994;2023-07-29T01:53:31;19.30;99.90
4324;DHT22;2175;51.018;6.994;2023-07-29T01:55:57;19.30;99.90
4324;DHT22;2175;51.018;6.994;2023-07-29T01:58:23;19.40;99.90
4324;DHT22;2175;51.018;6.994;2023-07-29T02:00:48;19.40;99.90
4324;DHT22;2175;51.018;6.994;2023-07-29T02:03:14;19.40;99.90
4324;DHT22;2175;51.018;6.994;2023-07-29T02:05:39;19.30;99.90
4324;DHT22;2175;51.018;6.994;2023-07-29T02:08:05;19.40;99.90
4324;DHT22;2175;51.018;6.994;2023-07-29T02:10:31;19.40;99.90
4324;DHT22;2175;51.018;6.994;2023-07-29T02:12:57;19.40;99.90
4324;DHT22;2175;51.018;6.994;2023-07-29T02:15:22;19.30;99.90
4324;DHT22;2175;51.018;6.994;2023-07-29T02:17:50;19.40;99.90
4324;DHT22;2175;51.018;6.994;2023-07-29T02:20:16;19.30;99.90
4324;DHT22;2175;51.018;6.994;2023-07-29T02:22:42;19.30;99.90
4324;DHT22;2175;51.018;6.994;2023-07-29T02:25:08;19.30;99.90
4324;DHT22;2175;51.018;6.994;2023-07-29T02:27:33;19.40;99.90
4324;DHT22;2175;51.018;6.994;2023-07-29T02:29:59;19.40;99.90
4324;DHT22;2175;51.018;6.994;2023-07-29T02:32:24;19.40;99.90
4324;DHT22;2175;51.018;6.994;2023-07-29T02:34:50;19.40;99.90
4324;DHT22;2175;51.018;6.994;2023-07-29T02:37:16;19.30;99.90
4324;DHT22;2175;51.018;6.994;2023-07-29T02:39:42;19.30;99.90
4324;DHT22;2175;51.018;6.994;2023-07-29T02:42:07;19.30;99.90
4324;DHT22;2175;51.018;6.994;2023-07-29T02:44:33;19.30;99.90
4324;DHT22;2175;51.018;6.994;2023-07-29T02:46:59;19.40;99.90
4324;DHT22;2175;51.018;6.994;2023-07-29T02:49:24;19.40;99.90
4324;DHT22;2175;51.018;6.994;2023-07-29T02:51:50;19.40;99.90
4324;DHT22;2175;51.018;6.994;2023-07-29T02:54:15;19.40;99.90
4324;DHT22;2175;51.018;6.994;2023-07-29T02:56:41;19.40;99.90
4324;DHT22;2175;51.018;6.994;2023-07-29T02:59:07;19.40;99.90
4324;DHT22;2175;51.018;6.994;2023-07-29T03:01:32;19.40;99.90
4324;DHT22;2175;51.018;6.994;2023-07-29T03:03:58;19.40;99.90
4324;DHT22;2175;51.018;6.994;2023-07-29T03:06:24;19.40;99.90
4324;DHT22;2175;51.018;6.994;2023-07-29T03:08:49;19.40;99.90
4324;DHT22;2175;51.018;6.994;2023-07-29T03:11:16;19.40;99.90
4324;DHT22;2175;51.018;6.994;2023-07-29T03:13:42;19.50;99.90
4324;DHT22;2175;51.018;6.994;2023-07-29T03:16:16;19.50;99.90
4324;DHT22;2175;51.018;6.994;2023-07-29T03:18:43;19.50;99.90
4324;DHT22;2175;51.018;6.994;2023-07-29T03:21:09;19.60;99.90
4324;DHT22;2175;51.018;6.994;2023-07-29T03:23:36;19.50;99.90
4324;DHT22;2175;51.018;6.994;2023-07-29T03:26:03;19.40;99.90
4324;DHT22;2175;51.018;6.994;2023-07-29T03:28:36;19.40;99.90
4324;DHT22;2175;51.018;6.994;2023-07-29T03:31:02;19.50;99.90
4324;DHT22;2175;51.018;6.994;2023-07-29T03:33:28;19.40;99.90
4324;DHT22;2175;51.018;6.994;2023-07-29T03:35:54;19.40;99.90
4324;DHT22;2175;51.018;6.994;2023-07-29T03:38:25;19.40;99.90
4324;DHT22;2175;51.018;6.994;2023-07-29T03:40:51;19.40;99.90
4324;DHT22;2175;51.018;6.994;2023-07-29T03:43:17;19.40;99.90
4324;DHT22;2175;51.018;6.994;2023-07-29T03:45:42;19.40;99.90
4324;DHT22;2175;51.018;6.994;2023-07-29T03:48:08;19.40;99.90
4324;DHT22;2175;51.018;6.994;2023-07-29T03:50:35;19.40;99.90
4324;DHT22;2175;51.018;6.994;2023-07-29T03:53:01;19.40;99.90
4324;DHT22;2175;51.018;6.994;2023-07-29T03:55:27;19.40;99.90
4324;DHT22;2175;51.018;6.994;2023-07-29T03:57:58;19.40;99.90
4324;DHT22;2175;51.018;6.994;2023-07-29T04:00:24;19.40;99.90
4324;DHT22;2175;51.018;6.994;2023-07-29T04:02:50;19.40;99.90
4324;DHT22;2175;51.018;6.994;2023-07-29T04:05:16;19.40;99.90
4324;DHT22;2175;51.018;6.994;2023-07-29T04:07:41;19.30;99.90
4324;DHT22;2175;51.018;6.994;2023-07-29T04:10:07;19.30;99.90
4324;DHT22;2175;51.018;6.994;2023-07-29T04:12:33;19.40;99.90
4324;DHT22;2175;51.018;6.994;2023-07-29T04:14:59;19.30;99.90
4324;DHT22;2175;51.018;6.994;2023-07-29T04:17:24;19.40;99.90
4324;DHT22;2175;51.018;6.994;2023-07-29T04:19:50;19.30;99.90
4324;DHT22;2175;51.018;6.994;2023-07-29T04:22:16;19.30;99.90
4324;DHT22;2175;51.018;6.994;2023-07-29T04:24:42;19.40;99.90
4324;DHT22;2175;51.018;6.994;2023-07-29T04:27:08;19.40;99.90
4324;DHT22;2175;51.018;6.994;2023-07-29T04:29:33;19.30;99.90
4324;DHT22;2175;51.018;6.994;2023-07-29T04:32:01;19.30;99.90
4324;DHT22;2175;51.018;6.994;2023-07-29T04:34:27;19.30;99.90
4324;DHT22;2175;51.018;6.994;2023-07-29T04:36:53;19.20;99.90
4324;DHT22;2175;51.018;6.994;2023-07-29T04:39:18;19.20;99.90
4324;DHT22;2175;51.018;6.994;2023-07-29T04:41:44;19.30;99.90
4324;DHT22;2175;51.018;6.994;2023-07-29T04:44:09;19.20;99.90
4324;DHT22;2175;51.018;6.994;2023-07-29T04:46:37;19.20;99.90
4324;DHT22;2175;51.018;6.994;2023-07-29T04:49:02;19.20;99.90
4324;DHT22;2175;51.018;6.994;2023-07-29T04:51:28;19.20;99.90
4324;DHT22;2175;51.018;6.994;2023-07-29T04:53:54;19.20;99.90
4324;DHT22;2175;51.018;6.994;2023-07-29T04:56:19;19.20;99.90
4324;DHT22;2175;51.018;6.994;2023-07-29T04:58:45;19.10;99.90
4324;DHT22;2175;51.018;6.994;2023-07-29T05:01:11;19.20;99.90
4324;DHT22;2175;51.018;6.994;2023-07-29T05:03:37;19.20;99.90
4324;DHT22;2175;51.018;6.994;2023-07-29T05:06:06;19.30;99.90
4324;DHT22;2175;51.018;6.994;2023-07-29T05:08:31;19.30;99.90
4324;DHT22;2175;51.018;6.994;2023-07-29T05:10:57;19.30;99.90
4324;DHT22;2175;51.018;6.994;2023-07-29T05:13:23;19.20;99.90
4324;DHT22;2175;51.018;6.994;2023-07-29T05:15:49;19.30;99.90
4324;DHT22;2175;51.018;6.994;2023-07-29T05:18:16;19.30;99.90
4324;DHT22;2175;51.018;6.994;2023-07-29T05:20:42;19.30;99.90
4324;DHT22;2175;51.018;6.994;2023-07-29T05:23:08;19.30;99.90
4324;DHT22;2175;51.018;6.994;2023-07-29T05:25:33;19.20;99.90
4324;DHT22;2175;51.018;6.994;2023-07-29T05:28:02;19.20;99.90
4324;DHT22;2175;51.018;6.994;2023-07-29T05:30:29;19.30;99.90
4324;DHT22;2175;51.018;6.994;2023-07-29T05:32:57;19.30;99.90
4324;DHT22;2175;51.018;6.994;2023-07-29T05:35:23;19.30;99.90
4324;DHT22;2175;51.018;6.994;2023-07-29T05:37:49;19.30;99.90
4324;DHT22;2175;51.018;6.994;2023-07-29T05:40:15;19.30;99.90
4324;DHT22;2175;51.018;6.994;2023-07-29T05:42:41;19.30;99.90
4324;DHT22;2175;51.018;6.994;2023-07-29T05:45:07;19.30;99.90
4324;DHT22;2175;51.018;6.994;2023-07-29T05:47:33;19.30;99.90
4324;DHT22;2175;51.018;6.994;2023-07-29T05:49:59;19.20;99.90
4324;DHT22;2175;51.018;6.994;2023-07-29T05:52:27;19.20;99.90
4324;DHT22;2175;51.018;6.994;2023-07-29T05:54:52;19.10;99.90
4324;DHT22;2175;51.018;6.994;2023-07-29T05:57:18;19.10;99.90
4324;DHT22;2175;51.018;6.994;2023-07-29T05:59:44;19.10;99.90
4324;DHT22;2175;51.018;6.994;2023-07-29T06:02:09;19.20;99.90
4324;DHT22;2175;51.018;6.994;2023-07-29T06:04:35;19.20;99.90
4324;DHT22;2175;51.018;6.994;2023-07-29T06:07:00;19.20;99.90
4324;DHT22;2175;51.018;6.994;2023-07-29T06:09:26;19.30;99.90
4324;DHT22;2175;51.018;6.994;2023-07-29T06:11:51;19.30;99.90
4324;DHT22;2175;51.018;6.994;2023-07-29T06:14:17;19.30;99.90
4324;DHT22;2175;51.018;6.994;2023-07-29T06:16:43;19.30;99.90
4324;DHT22;2175;51.018;6.994;2023-07-29T06:19:08;19.40;99.90
4324;DHT22;2175;51.018;6.994;2023-07-29T06:21:35;19.40;99.90
4324;DHT22;2175;51.018;6.994;2023-07-29T06:24:01;19.40;99.90
4324;DHT22;2175;51.018;6.994;2023-07-29T06:26:28;19.20;99.90
4324;DHT22;2175;51.018;6.994;2023-07-29T06:28:53;19.30;99.90
4324;DHT22;2175;51.018;6.994;2023-07-29T06:31:19;19.20;99.90
4324;DHT22;2175;51.018;6.994;2023-07-29T06:33:45;19.10;99.90
4324;DHT22;2175;51.018;6.994;2023-07-29T06:36:10;19.00;99.90
4324;DHT22;2175;51.018;6.994;2023-07-29T06:38:36;19.00;99.90
4324;DHT22;2175;51.018;6.994;2023-07-29T06:41:02;19.00;99.90
4324;DHT22;2175;51.018;6.994;2023-07-29T06:43:27;19.00;99.90
4324;DHT22;2175;51.018;6.994;2023-07-29T06:45:53;19.00;99.90
4324;DHT22;2175;51.018;6.994;2023-07-29T06:48:19;19.00;99.90
4324;DHT22;2175;51.018;6.994;2023-07-29T06:50:45;19.00;99.90
4324;DHT22;2175;51.018;6.994;2023-07-29T06:53:11;19.10;99.90
4324;DHT22;2175;51.018;6.994;2023-07-29T06:55:37;19.20;99.90
4324;DHT22;2175;51.018;6.994;2023-07-29T06:58:03;19.20;99.90
4324;DHT22;2175;51.018;6.994;2023-07-29T07:00:29;19.20;99.90
4324;DHT22;2175;51.018;6.994;2023-07-29T07:02:55;19.20;99.90
4324;DHT22;2175;51.018;6.994;2023-07-29T07:05:21;19.10;99.90
4324;DHT22;2175;51.018;6.994;2023-07-29T07:07:46;19.20;99.90
4324;DHT22;2175;51.018;6.994;2023-07-29T07:10:12;19.10;99.90
4324;DHT22;2175;51.018;6.994;2023-07-29T07:12:38;19.30;99.90
4324;DHT22;2175;51.018;6.994;2023-07-29T07:15:04;19.40;99.90
4324;DHT22;2175;51.018;6.994;2023-07-29T07:17:30;19.40;99.90
4324;DHT22;2175;51.018;6.994;2023-07-29T07:19:55;19.40;99.90
4324;DHT22;2175;51.018;6.994;2023-07-29T07:22:21;19.50;99.90
4324;DHT22;2175;51.018;6.994;2023-07-29T07:24:46;19.40;99.90
4324;DHT22;2175;51.018;6.994;2023-07-29T07:27:12;19.30;99.90
4324;DHT22;2175;51.018;6.994;2023-07-29T07:29:37;19.40;99.90
4324;DHT22;2175;51.018;6.994;2023-07-29T07:32:03;19.50;99.90
4324;DHT22;2175;51.018;6.994;2023-07-29T07:34:29;19.50;99.90
4324;DHT22;2175;51.018;6.994;2023-07-29T07:36:54;19.40;99.90
4324;DHT22;2175;51.018;6.994;2023-07-29T07:39:20;19.60;99.90
4324;DHT22;2175;51.018;6.994;2023-07-29T07:41:46;19.50;99.90
4324;DHT22;2175;51.018;6.994;2023-07-29T07:44:12;19.80;99.90
4324;DHT22;2175;51.018;6.994;2023-07-29T07:46:41;19.80;99.90
4324;DHT22;2175;51.018;6.994;2023-07-29T07:49:06;20.00;99.90
4324;DHT22;2175;51.018;6.994;2023-07-29T07:51:32;20.10;99.90
4324;DHT22;2175;51.018;6.994;2023-07-29T07:53:58;20.00;99.90
4324;DHT22;2175;51.018;6.994;2023-07-29T07:56:23;20.00;99.90
4324;DHT22;2175;51.018;6.994;2023-07-29T07:58:49;19.90;99.90
4324;DHT22;2175;51.018;6.994;2023-07-29T08:01:14;19.80;99.90
4324;DHT22;2175;51.018;6.994;2023-07-29T08:03:40;19.80;99.90
4324;DHT22;2175;51.018;6.994;2023-07-29T08:06:06;19.90;99.90
4324;DHT22;2175;51.018;6.994;2023-07-29T08:08:31;20.00;99.90
4324;DHT22;2175;51.018;6.994;2023-07-29T08:10:57;20.10;99.90
4324;DHT22;2175;51.018;6.994;2023-07-29T08:13:24;20.30;99.90
4324;DHT22;2175;51.018;6.994;2023-07-29T08:15:51;20.50;99.90
4324;DHT22;2175;51.018;6.994;2023-07-29T08:18:17;20.70;99.90
4324;DHT22;2175;51.018;6.994;2023-07-29T08:20:53;21.00;99.90
4324;DHT22;2175;51.018;6.994;2023-07-29T08:23:20;21.00;99.90
4324;DHT22;2175;51.018;6.994;2023-07-29T08:25:57;21.00;99.90
4324;DHT22;2175;51.018;6.994;2023-07-29T08:28:33;20.80;99.90
4324;DHT22;2175;51.018;6.994;2023-07-29T08:30:59;20.80;99.90
4324;DHT22;2175;51.018;6.994;2023-07-29T08:33:26;20.60;99.90
4324;DHT22;2175;51.018;6.994;2023-07-29T08:35:52;20.40;99.90
4324;DHT22;2175;51.018;6.994;2023-07-29T08:38:18;20.40;99.90
4324;DHT22;2175;51.018;6.994;2023-07-29T08:46:21;20.90;99.90
4324;DHT22;2175;51.018;6.994;2023-07-29T08:48:47;21.00;99.90
4324;DHT22;2175;51.018;6.994;2023-07-29T08:51:12;20.90;99.90
4324;DHT22;2175;51.018;6.994;2023-07-29T08:53:39;20.80;99.90
4324;DHT22;2175;51.018;6.994;2023-07-29T08:56:06;20.80;99.90
4324;DHT22;2175;51.018;6.994;2023-07-29T08:58:32;20.70;99.90
4324;DHT22;2175;51.018;6.994;2023-07-29T09:00:58;20.80;99.90
4324;DHT22;2175;51.018;6.994;2023-07-29T09:03:24;20.80;99.90
4324;DHT22;2175;51.018;6.994;2023-07-29T09:05:50;20.70;99.90
4324;DHT22;2175;51.018;6.994;2023-07-29T09:08:16;20.60;99.90
4324;DHT22;2175;51.018;6.994;2023-07-29T09:10:42;20.60;99.90
4324;DHT22;2175;51.018;6.994;2023-07-29T09:13:08;20.60;99.90
4324;DHT22;2175;51.018;6.994;2023-07-29T09:15:35;20.60;99.90
4324;DHT22;2175;51.018;6.994;2023-07-29T09:18:19;20.60;99.90
4324;DHT22;2175;51.018;6.994;2023-07-29T09:20:49;20.50;99.90
4324;DHT22;2175;51.018;6.994;2023-07-29T09:23:16;20.60;99.90
4324;DHT22;2175;51.018;6.994;2023-07-29T09:25:42;20.60;99.90
4324;DHT22;2175;51.018;6.994;2023-07-29T09:28:10;20.50;99.90
4324;DHT22;2175;51.018;6.994;2023-07-29T09:30:40;20.70;99.90
4324;DHT22;2175;51.018;6.994;2023-07-29T09:33:06;20.80;99.90
4324;DHT22;2175;51.018;6.994;2023-07-29T09:35:36;20.70;99.90
4324;DHT22;2175;51.018;6.994;2023-07-29T09:38:03;20.80;99.90
4324;DHT22;2175;51.018;6.994;2023-07-29T09:40:37;20.80;99.90
4324;DHT22;2175;51.018;6.994;2023-07-29T09:43:04;20.70;99.90
4324;DHT22;2175;51.018;6.994;2023-07-29T09:45:32;20.70;99.90
4324;DHT22;2175;51.018;6.994;2023-07-29T09:47:58;20.80;99.90
4324;DHT22;2175;51.018;6.994;2023-07-29T09:50:25;20.80;99.90
4324;DHT22;2175;51.018;6.994;2023-07-29T09:52:52;20.80;99.90
4324;DHT22;2175;51.018;6.994;2023-07-29T09:55:19;21.00;99.90
4324;DHT22;2175;51.018;6.994;2023-07-29T09:57:46;21.00;99.90
4324;DHT22;2175;51.018;6.994;2023-07-29T10:00:12;21.10;99.90
4324;DHT22;2175;51.018;6.994;2023-07-29T10:02:43;21.10;99.90
4324;DHT22;2175;51.018;6.994;2023-07-29T10:05:09;21.20;99.90
4324;DHT22;2175;51.018;6.994;2023-07-29T10:07:39;21.10;99.90
4324;DHT22;2175;51.018;6.994;2023-07-29T10:10:07;21.10;99.90
4324;DHT22;2175;51.018;6.994;2023-07-29T10:12:34;21.10;99.90
4324;DHT22;2175;51.018;6.994;2023-07-29T10:15:04;21.30;99.90
4324;DHT22;2175;51.018;6.994;2023-07-29T10:17:33;21.50;99.90
4324;DHT22;2175;51.018;6.994;2023-07-29T10:20:00;21.70;99.90
4324;DHT22;2175;51.018;6.994;2023-07-29T10:22:35;21.60;99.90
4324;DHT22;2175;51.018;6.994;2023-07-29T10:25:08;21.50;99.90
4324;DHT22;2175;51.018;6.994;2023-07-29T10:28:06;21.50;99.90
4324;DHT22;2175;51.018;6.994;2023-07-29T10:30:32;21.30;99.90
4324;DHT22;2175;51.018;6.994;2023-07-29T10:33:01;21.20;99.90
4324;DHT22;2175;51.018;6.994;2023-07-29T10:35:27;21.00;99.90
4324;DHT22;2175;51.018;6.994;2023-07-29T10:37:53;20.90;99.90
4324;DHT22;2175;51.018;6.994;2023-07-29T10:40:19;20.90;99.90
4324;DHT22;2175;51.018;6.994;2023-07-29T10:43:09;20.90;99.90
4324;DHT22;2175;51.018;6.994;2023-07-29T10:45:40;20.90;99.90
4324;DHT22;2175;51.018;6.994;2023-07-29T10:48:10;21.00;99.90
4324;DHT22;2175;51.018;6.994;2023-07-29T10:50:36;20.90;99.90
4324;DHT22;2175;51.018;6.994;2023-07-29T10:53:02;20.90;99.90
4324;DHT22;2175;51.018;6.994;2023-07-29T10:55:35;20.90;99.90
4324;DHT22;2175;51.018;6.994;2023-07-29T10:58:14;21.00;99.90
4324;DHT22;2175;51.018;6.994;2023-07-29T11:00:43;21.00;99.90
4324;DHT22;2175;51.018;6.994;2023-07-29T11:03:09;20.90;99.90
4324;DHT22;2175;51.018;6.994;2023-07-29T11:05:52;20.80;99.90
4324;DHT22;2175;51.018;6.994;2023-07-29T11:11:07;20.80;99.90
4324;DHT22;2175;51.018;6.994;2023-07-29T11:13:37;20.90;99.90
4324;DHT22;2175;51.018;6.994;2023-07-29T11:16:04;21.00;99.90
4324;DHT22;2175;51.018;6.994;2023-07-29T11:18:34;21.00;99.90
4324;DHT22;2175;51.018;6.994;2023-07-29T11:21:02;21.20;99.90
4324;DHT22;2175;51.018;6.994;2023-07-29T11:23:37;21.40;99.90
4324;DHT22;2175;51.018;6.994;2023-07-29T11:26:04;21.40;99.90
4324;DHT22;2175;51.018;6.994;2023-07-29T11:28:30;21.40;99.90
4324;DHT22;2175;51.018;6.994;2023-07-29T11:30:56;21.50;99.90
4324;DHT22;2175;51.018;6.994;2023-07-29T11:33:26;21.60;99.90
4324;DHT22;2175;51.018;6.994;2023-07-29T11:35:54;21.90;99.90
4324;DHT22;2175;51.018;6.994;2023-07-29T11:38:21;22.20;99.90
4324;DHT22;2175;51.018;6.994;2023-07-29T11:41:03;22.30;99.90
4324;DHT22;2175;51.018;6.994;2023-07-29T11:43:28;22.50;99.90
4324;DHT22;2175;51.018;6.994;2023-07-29T11:45:54;22.50;99.90
4324;DHT22;2175;51.018;6.994;2023-07-29T11:48:32;22.40;99.90
4324;DHT22;2175;51.018;6.994;2023-07-29T11:50:58;22.60;99.90
4324;DHT22;2175;51.018;6.994;2023-07-29T11:53:27;22.70;99.90
4324;DHT22;2175;51.018;6.994;2023-07-29T11:55:53;22.60;99.90
4324;DHT22;2175;51.018;6.994;2023-07-29T11:58:20;22.60;99.90
4324;DHT22;2175;51.018;6.994;2023-07-29T12:00:46;22.70;99.90
4324;DHT22;2175;51.018;6.994;2023-07-29T12:03:12;22.50;99.90
4324;DHT22;2175;51.018;6.994;2023-07-29T12:05:38;22.60;99.90
4324;DHT22;2175;51.018;6.994;2023-07-29T12:08:03;22.50;99.90
4324;DHT22;2175;51.018;6.994;2023-07-29T12:10:30;22.40;99.90
4324;DHT22;2175;51.018;6.994;2023-07-29T12:12:55;22.50;99.90
4324;DHT22;2175;51.018;6.994;2023-07-29T12:15:28;22.50;99.90
4324;DHT22;2175;51.018;6.994;2023-07-29T12:17:56;22.60;99.90
4324;DHT22;2175;51.018;6.994;2023-07-29T12:20:22;22.60;99.90
4324;DHT22;2175;51.018;6.994;2023-07-29T12:22:59;22.50;99.90
4324;DHT22;2175;51.018;6.994;2023-07-29T12:25:30;22.40;99.90
4324;DHT22;2175;51.018;6.994;2023-07-29T12:27:56;22.30;99.90
4324;DHT22;2175;51.018;6.994;2023-07-29T12:30:23;22.50;99.90
4324;DHT22;2175;51.018;6.994;2023-07-29T12:32:50;22.50;99.90
4324;DHT22;2175;51.018;6.994;2023-07-29T12:35:15;22.40;99.90
4324;DHT22;2175;51.018;6.994;2023-07-29T12:37:41;22.50;99.90
4324;DHT22;2175;51.018;6.994;2023-07-29T12:40:30;22.50;99.90
4324;DHT22;2175;51.018;6.994;2023-07-29T12:42:55;22.60;99.90
4324;DHT22;2175;51.018;6.994;2023-07-29T12:45:23;22.70;99.90
4324;DHT22;2175;51.018;6.994;2023-07-29T12:47:52;22.90;99.90
4324;DHT22;2175;51.018;6.994;2023-07-29T12:50:18;22.80;99.90
4324;DHT22;2175;51.018;6.994;2023-07-29T12:52:43;22.90;99.90
4324;DHT22;2175;51.018;6.994;2023-07-29T12:55:09;22.90;99.90
4324;DHT22;2175;51.018;6.994;2023-07-29T12:57:39;22.80;99.90
4324;DHT22;2175;51.018;6.994;2023-07-29T13:00:05;22.70;99.90
4324;DHT22;2175;51.018;6.994;2023-07-29T13:02:31;22.90;99.90
4324;DHT22;2175;51.018;6.994;2023-07-29T13:04:57;22.90;99.90
4324;DHT22;2175;51.018;6.994;2023-07-29T13:07:23;22.90;99.90
4324;DHT22;2175;51.018;6.994;2023-07-29T13:09:48;22.90;99.90
4324;DHT22;2175;51.018;6.994;2023-07-29T13:12:14;22.80;99.90
4324;DHT22;2175;51.018;6.994;2023-07-29T13:14:39;22.70;99.90
4324;DHT22;2175;51.018;6.994;2023-07-29T13:17:05;22.70;99.90
4324;DHT22;2175;51.018;6.994;2023-07-29T13:19:31;22.70;99.90
4324;DHT22;2175;51.018;6.994;2023-07-29T13:21:56;22.80;99.90
4324;DHT22;2175;51.018;6.994;2023-07-29T13:24:22;22.80;99.90
4324;DHT22;2175;51.018;6.994;2023-07-29T13:26:47;22.70;99.90
4324;DHT22;2175;51.018;6.994;2023-07-29T13:29:13;22.60;99.90
4324;DHT22;2175;51.018;6.994;2023-07-29T13:31:39;22.50;99.90
4324;DHT22;2175;51.018;6.994;2023-07-29T13:34:07;22.40;99.90
4324;DHT22;2175;51.018;6.994;2023-07-29T13:36:32;22.30;99.90
4324;DHT22;2175;51.018;6.994;2023-07-29T13:38:58;22.20;99.90
4324;DHT22;2175;51.018;6.994;2023-07-29T13:41:24;22.00;99.90
4324;DHT22;2175;51.018;6.994;2023-07-29T13:43:49;22.00;99.90
4324;DHT22;2175;51.018;6.994;2023-07-29T13:46:15;21.90;99.90
4324;DHT22;2175;51.018;6.994;2023-07-29T13:48:40;21.80;99.90
4324;DHT22;2175;51.018;6.994;2023-07-29T13:51:06;21.80;99.90
4324;DHT22;2175;51.018;6.994;2023-07-29T13:53:32;21.60;99.90
4324;DHT22;2175;51.018;6.994;2023-07-29T13:55:57;21.50;99.90
4324;DHT22;2175;51.018;6.994;2023-07-29T13:58:23;21.40;99.90
4324;DHT22;2175;51.018;6.994;2023-07-29T14:00:49;21.20;99.90
4324;DHT22;2175;51.018;6.994;2023-07-29T14:03:14;21.10;99.90
4324;DHT22;2175;51.018;6.994;2023-07-29T14:05:40;21.00;99.90
4324;DHT22;2175;51.018;6.994;2023-07-29T14:08:05;20.90;99.90
4324;DHT22;2175;51.018;6.994;2023-07-29T14:10:31;20.90;99.90
4324;DHT22;2175;51.018;6.994;2023-07-29T14:12:57;20.90;99.90
4324;DHT22;2175;51.018;6.994;2023-07-29T14:15:22;21.00;99.90
4324;DHT22;2175;51.018;6.994;2023-07-29T14:17:48;21.10;99.90
4324;DHT22;2175;51.018;6.994;2023-07-29T14:20:13;21.20;99.90
4324;DHT22;2175;51.018;6.994;2023-07-29T14:22:39;21.10;99.90
4324;DHT22;2175;51.018;6.994;2023-07-29T14:25:05;21.30;99.90
4324;DHT22;2175;51.018;6.994;2023-07-29T14:27:31;21.40;99.90
4324;DHT22;2175;51.018;6.994;2023-07-29T14:29:57;21.70;99.90
4324;DHT22;2175;51.018;6.994;2023-07-29T14:32:23;21.80;99.90
4324;DHT22;2175;51.018;6.994;2023-07-29T14:34:49;21.80;99.90
4324;DHT22;2175;51.018;6.994;2023-07-29T14:37:15;21.60;99.90
4324;DHT22;2175;51.018;6.994;2023-07-29T14:39:50;21.70;99.90
4324;DHT22;2175;51.018;6.994;2023-07-29T14:42:37;21.70;99.90
4324;DHT22;2175;51.018;6.994;2023-07-29T14:45:19;21.70;99.90
4324;DHT22;2175;51.018;6.994;2023-07-29T14:48:07;21.60;99.90
4324;DHT22;2175;51.018;6.994;2023-07-29T14:51:08;21.80;99.90
4324;DHT22;2175;51.018;6.994;2023-07-29T14:53:44;21.80;99.90
4324;DHT22;2175;51.018;6.994;2023-07-29T14:56:22;21.80;99.90
4324;DHT22;2175;51.018;6.994;2023-07-29T14:59:04;21.80;99.90
4324;DHT22;2175;51.018;6.994;2023-07-29T15:02:01;21.80;99.90
4324;DHT22;2175;51.018;6.994;2023-07-29T15:04:28;21.80;99.90
4324;DHT22;2175;51.018;6.994;2023-07-29T15:06:55;21.80;99.90
4324;DHT22;2175;51.018;6.994;2023-07-29T15:09:21;21.70;99.90
4324;DHT22;2175;51.018;6.994;2023-07-29T15:11:52;21.70;99.90
4324;DHT22;2175;51.018;6.994;2023-07-29T15:14:29;21.70;99.90
4324;DHT22;2175;51.018;6.994;2023-07-29T15:16:58;21.70;99.90
4324;DHT22;2175;51.018;6.994;2023-07-29T15:19:34;21.70;99.90
4324;DHT22;2175;51.018;6.994;2023-07-29T15:22:02;21.70;99.90
4324;DHT22;2175;51.018;6.994;2023-07-29T15:24:30;21.80;99.90
4324;DHT22;2175;51.018;6.994;2023-07-29T15:27:14;21.70;99.90
4324;DHT22;2175;51.018;6.994;2023-07-29T15:29:40;21.60;99.90
4324;DHT22;2175;51.018;6.994;2023-07-29T15:32:07;21.60;99.90
4324;DHT22;2175;51.018;6.994;2023-07-29T15:34:33;21.50;99.90
4324;DHT22;2175;51.018;6.994;2023-07-29T15:36:58;21.50;99.90
4324;DHT22;2175;51.018;6.994;2023-07-29T15:39:24;21.60;99.90
4324;DHT22;2175;51.018;6.994;2023-07-29T15:41:50;21.70;99.90
4324;DHT22;2175;51.018;6.994;2023-07-29T15:44:16;21.80;99.90
4324;DHT22;2175;51.018;6.994;2023-07-29T15:46:44;21.90;99.90
4324;DHT22;2175;51.018;6.994;2023-07-29T15:49:11;22.00;99.90
4324;DHT22;2175;51.018;6.994;2023-07-29T15:51:47;22.20;99.90
4324;DHT22;2175;51.018;6.994;2023-07-29T15:54:13;22.30;99.90
4324;DHT22;2175;51.018;6.994;2023-07-29T15:56:38;22.40;99.90
4324;DHT22;2175;51.018;6.994;2023-07-29T15:59:26;22.30;99.90
4324;DHT22;2175;51.018;6.994;2023-07-29T16:01:55;22.00;99.90
4324;DHT22;2175;51.018;6.994;2023-07-29T16:04:25;22.00;99.90
4324;DHT22;2175;51.018;6.994;2023-07-29T16:06:52;21.90;99.90
4324;DHT22;2175;51.018;6.994;2023-07-29T16:09:21;21.80;99.90
4324;DHT22;2175;51.018;6.994;2023-07-29T16:11:48;21.80;99.90
4324;DHT22;2175;51.018;6.994;2023-07-29T16:14:14;21.80;99.90
4324;DHT22;2175;51.018;6.994;2023-07-29T16:16:40;21.70;99.90
4324;DHT22;2175;51.018;6.994;2023-07-29T16:19:08;21.70;99.90